createdAt,value
2024-05-09T00:00:42.541Z,12.82
2024-05-09T00:03:11.050Z,13.02
2024-05-09T00:05:41.291Z,12.88
2024-05-09T00:08:09.843Z,12.30
2024-05-09T00:10:39.195Z,12.90
2024-05-09T00:13:08.124Z,13.10
2024-05-09T00:15:36.355Z,13.70
2024-05-09T00:18:04.768Z,14.82
2024-05-09T00:20:37.912Z,13.82
2024-05-09T00:23:12.606Z,15.02
2024-05-09T00:25:42.927Z,13.60
2024-05-09T00:28:11.642Z,14.40
2024-05-09T00:30:38.663Z,14.23
2024-05-09T00:33:07.267Z,13.25
2024-05-09T00:35:35.718Z,13.80
2024-05-09T00:38:03.296Z,12.48
2024-05-09T00:40:39.870Z,11.43
2024-05-09T00:43:10.658Z,12.38
2024-05-09T00:45:37.976Z,13.43
2024-05-09T00:48:07.810Z,13.10
2024-05-09T00:50:38.987Z,12.93
2024-05-09T00:53:14.677Z,14.43
2024-05-09T00:55:42.759Z,12.40
2024-05-09T00:58:12.475Z,11.18
2024-05-09T01:01:11.798Z,11.80
2024-05-09T01:03:39.101Z,11.70
2024-05-09T01:06:06.297Z,11.77
2024-05-09T01:08:33.621Z,11.82
2024-05-09T01:11:00.929Z,12.45
2024-05-09T01:13:28.058Z,12.40
2024-05-09T01:15:55.680Z,14.18
2024-05-09T01:18:23.146Z,13.32
2024-05-09T01:20:50.417Z,12.88
2024-05-09T01:23:17.615Z,14.75
2024-05-09T01:25:46.127Z,14.38
2024-05-09T01:28:14.168Z,13.65
2024-05-09T01:30:41.248Z,13.82
2024-05-09T01:33:10.397Z,14.07
2024-05-09T01:35:41.303Z,14.13
2024-05-09T01:38:10.047Z,14.43
2024-05-09T01:40:39.758Z,12.82
2024-05-09T01:43:09.541Z,14.05
2024-05-09T01:45:38.313Z,15.60
2024-05-09T01:48:06.111Z,16.60
2024-05-09T01:50:38.284Z,14.52
2024-05-09T01:53:10.087Z,16.67
2024-05-09T01:55:37.575Z,16.83
2024-05-09T01:58:04.922Z,18.52
2024-05-09T02:00:38.892Z,18.35
2024-05-09T02:03:16.411Z,17.27
2024-05-09T02:05:46.771Z,18.20
2024-05-09T02:08:16.035Z,17.45
2024-05-09T02:10:44.853Z,18.60
2024-05-09T02:13:12.678Z,17.15
2024-05-09T02:15:39.940Z,16.98
2024-05-09T02:18:08.408Z,18.27
2024-05-09T02:20:39.061Z,16.10
2024-05-09T02:23:07.023Z,16.63
2024-05-09T02:25:34.602Z,14.85
2024-05-09T02:28:01.945Z,17.65
2024-05-09T02:30:38.225Z,17.27
2024-05-09T02:33:13.394Z,16.38
2024-05-09T02:35:43.082Z,18.65
2024-05-09T02:38:11.210Z,18.45
2024-05-09T02:40:39.725Z,18.55
2024-05-09T02:43:09.577Z,18.10
2024-05-09T02:45:38.379Z,17.58
2024-05-09T02:48:06.854Z,16.70
2024-05-09T02:50:38.627Z,18.10
2024-05-09T02:53:08.628Z,18.75
2024-05-09T02:55:36.451Z,18.42
2024-05-09T02:58:03.831Z,17.50
2024-05-09T03:00:38.396Z,18.30
2024-05-09T03:03:10.170Z,18.77
2024-05-09T03:05:39.765Z,17.58
2024-05-09T03:08:07.437Z,18.95
2024-05-09T03:10:36.409Z,18.60
2024-05-09T03:13:10.030Z,22.10
2024-05-09T03:15:37.201Z,20.25
2024-05-09T03:18:06.548Z,19.30
2024-05-09T03:20:35.867Z,18.52
2024-05-09T03:23:05.633Z,18.17
2024-05-09T03:25:33.626Z,17.05
2024-05-09T03:28:00.955Z,16.73
2024-05-09T03:30:38.426Z,15.95
2024-05-09T03:33:18.671Z,17.02
2024-05-09T03:35:47.562Z,18.17
2024-05-09T03:38:15.009Z,19.88
2024-05-09T03:40:49.901Z,17.98
2024-05-09T03:43:18.966Z,18.95
2024-05-09T03:45:49.529Z,20.60
2024-05-09T03:48:17.239Z,19.15
2024-05-09T03:50:44.645Z,18.58
2024-05-09T03:53:13.418Z,18.30
2024-05-09T03:55:40.820Z,18.48
2024-05-09T03:58:08.585Z,18.75
2024-05-09T04:00:39.163Z,17.75
2024-05-09T04:03:10.354Z,17.70
2024-05-09T04:05:41.607Z,18.55
2024-05-09T04:08:10.398Z,17.88
2024-05-09T04:10:37.952Z,17.00
2024-05-09T04:13:05.443Z,18.63
2024-05-09T04:15:32.851Z,19.65
2024-05-09T04:18:00.752Z,20.23
2024-05-09T04:20:36.619Z,19.50
2024-05-09T04:23:08.682Z,19.60
2024-05-09T04:25:37.243Z,18.67
2024-05-09T04:28:05.313Z,18.00
2024-05-09T04:30:38.625Z,20.52
2024-05-09T04:33:11.144Z,19.88
2024-05-09T04:35:42.073Z,21.35
2024-05-09T04:38:09.632Z,20.77
2024-05-09T04:40:37.771Z,19.92
2024-05-09T04:43:06.709Z,19.58
2024-05-09T04:45:34.502Z,21.20
2024-05-09T04:48:02.286Z,21.10
2024-05-09T04:50:36.153Z,22.45
2024-05-09T04:53:08.179Z,22.15
2024-05-09T04:55:36.694Z,21.20
2024-05-09T04:58:03.845Z,20.02
2024-05-09T05:00:36.491Z,21.60
2024-05-09T05:03:08.533Z,18.88
2024-05-09T05:05:41.821Z,18.15
2024-05-09T05:08:19.208Z,18.00
2024-05-09T05:10:48.532Z,15.98
2024-05-09T05:13:20.963Z,18.30
2024-05-09T05:15:51.468Z,17.40
2024-05-09T05:18:19.789Z,17.35
2024-05-09T05:20:47.583Z,17.83
2024-05-09T05:23:18.448Z,17.45
2024-05-09T05:25:48.165Z,16.85
2024-05-09T05:28:19.849Z,16.60
2024-05-09T05:30:47.114Z,15.65
2024-05-09T05:33:16.083Z,16.58
2024-05-09T05:35:43.798Z,14.75
2024-05-09T05:38:11.279Z,14.05
2024-05-09T05:40:40.233Z,14.32
2024-05-09T05:43:09.764Z,12.82
2024-05-09T05:45:37.159Z,12.38
2024-05-09T05:48:06.094Z,12.23
2024-05-09T05:50:38.469Z,12.43
2024-05-09T05:53:08.090Z,12.50
2024-05-09T05:55:40.380Z,11.68
2024-05-09T05:58:11.537Z,12.25
2024-05-09T06:00:40.500Z,11.35
2024-05-09T06:03:09.597Z,11.32
2024-05-09T06:05:40.435Z,10.40
2024-05-09T06:08:08.576Z,10.40
2024-05-09T06:10:39.361Z,9.63
2024-05-09T06:13:11.386Z,10.35
2024-05-09T06:15:40.363Z,7.63
2024-05-09T06:18:09.477Z,9.10
2024-05-09T06:20:39.864Z,7.63
2024-05-09T06:23:08.578Z,7.22
2024-05-09T06:25:39.229Z,5.97
2024-05-09T06:28:06.629Z,7.63
2024-05-09T06:30:40.170Z,6.50
2024-05-09T06:33:12.291Z,7.25
2024-05-09T06:35:41.406Z,6.07
2024-05-09T06:38:09.353Z,5.63
2024-05-09T06:40:41.298Z,5.47
2024-05-09T06:43:13.832Z,5.53
2024-05-09T06:45:41.242Z,5.80
2024-05-09T06:48:11.915Z,5.13
2024-05-09T06:50:40.461Z,6.18
2024-05-09T06:53:11.527Z,5.90
2024-05-09T06:55:38.666Z,6.70
2024-05-09T06:58:07.077Z,6.40
2024-05-09T07:00:39.170Z,6.68
2024-05-09T07:03:12.032Z,8.15
2024-05-09T07:05:40.748Z,6.90
2024-05-09T07:08:08.118Z,5.63
2024-05-09T07:10:36.570Z,4.78
2024-05-09T07:13:15.106Z,5.15
2024-05-09T07:15:42.936Z,5.25
2024-05-09T07:18:20.398Z,5.35
2024-05-09T07:20:49.423Z,6.05
2024-05-09T07:23:18.333Z,4.53
2024-05-09T07:25:46.634Z,4.93
2024-05-09T07:28:16.098Z,5.47
2024-05-09T07:30:43.818Z,5.45
2024-05-09T07:33:17.609Z,5.57
2024-05-09T07:35:44.930Z,4.20
2024-05-09T07:38:12.009Z,5.15
2024-05-09T07:40:40.539Z,4.35
2024-05-09T07:43:08.927Z,4.97
2024-05-09T07:53:37.062Z,3.95
2024-05-09T07:55:57.194Z,4.75
2024-05-09T07:58:27.814Z,3.83
2024-05-09T08:00:55.389Z,2.72
2024-05-09T08:03:23.284Z,1.73
2024-05-09T08:05:52.063Z,1.80
2024-05-09T08:08:19.087Z,1.95
2024-05-09T08:10:46.558Z,1.80
2024-05-09T08:13:13.968Z,2.33
2024-05-09T08:15:41.438Z,2.83
2024-05-09T08:18:09.940Z,4.00
2024-05-09T08:20:38.249Z,3.53
2024-05-09T08:23:05.716Z,4.43
2024-05-09T08:25:33.026Z,4.78
2024-05-09T08:28:00.461Z,2.92
2024-05-09T08:30:33.683Z,5.80
2024-05-09T08:33:05.641Z,3.25
2024-05-09T08:35:33.974Z,2.10
2024-05-09T08:38:03.161Z,2.22
2024-05-09T08:40:35.710Z,5.03
2024-05-09T08:43:12.780Z,1.75
2024-05-09T08:45:44.407Z,2.63
2024-05-09T08:48:15.477Z,2.10
2024-05-09T08:50:44.523Z,2.30
2024-05-09T08:53:12.479Z,3.50
2024-05-09T08:55:43.188Z,2.90
2024-05-09T08:58:16.241Z,2.08
2024-05-09T09:00:45.949Z,2.10
2024-05-09T09:03:17.726Z,1.55
2024-05-09T09:06:07.444Z,2.08
2024-05-09T09:08:34.824Z,1.73
2024-05-09T09:11:02.007Z,2.40
2024-05-09T09:13:29.225Z,3.20
2024-05-09T09:15:59.384Z,2.83
2024-05-09T09:18:28.056Z,1.80
2024-05-09T09:20:55.925Z,3.33
2024-05-09T09:23:23.203Z,8.25
2024-05-09T09:25:50.226Z,2.22
2024-05-09T09:28:18.699Z,4.25
2024-05-09T09:30:45.926Z,4.15
2024-05-09T09:33:13.268Z,1.75
2024-05-09T09:35:42.387Z,1.73
2024-05-09T09:38:10.735Z,1.42
2024-05-09T09:40:48.144Z,1.75
2024-05-09T09:43:23.934Z,1.60
2024-05-09T09:45:53.891Z,9.35
2024-05-09T09:48:22.362Z,6.18
2024-05-09T09:50:51.998Z,5.68
2024-05-09T09:53:20.106Z,3.55
2024-05-09T09:55:48.471Z,2.75
2024-05-09T09:58:18.735Z,2.03
2024-05-09T10:00:46.235Z,1.75
2024-05-09T10:03:13.521Z,1.80
2024-05-09T10:05:44.006Z,1.77
2024-05-09T10:08:14.503Z,2.00
2024-05-09T10:10:46.767Z,2.08
2024-05-09T10:13:14.018Z,1.77
2024-05-09T10:15:46.013Z,2.25
2024-05-09T10:18:15.363Z,1.90
2024-05-09T10:20:44.179Z,1.70
2024-05-09T10:23:25.808Z,4.28
2024-05-09T10:26:05.222Z,2.30
2024-05-09T10:28:36.973Z,2.42
2024-05-09T10:31:11.765Z,1.63
2024-05-09T10:33:52.614Z,3.10
2024-05-09T10:36:26.730Z,2.35
2024-05-09T10:38:55.205Z,2.72
2024-05-09T10:41:23.777Z,2.33
2024-05-09T10:43:51.788Z,3.28
2024-05-09T10:46:19.503Z,1.95
2024-05-09T10:48:48.636Z,2.42
2024-05-09T10:51:17.204Z,1.75
2024-05-09T10:53:46.037Z,2.40
2024-05-09T10:56:16.590Z,2.45
2024-05-09T10:58:44.618Z,2.45
2024-05-09T11:01:13.443Z,2.97
2024-05-09T11:03:41.186Z,12.23
2024-05-09T11:06:09.936Z,2.65
2024-05-09T11:08:38.118Z,3.95
2024-05-09T11:11:08.024Z,3.13
2024-05-09T11:13:37.963Z,3.35
2024-05-09T11:16:07.423Z,2.85
2024-05-09T11:18:38.219Z,5.22
2024-05-09T11:21:13.210Z,3.42
2024-05-09T11:23:41.018Z,3.05
2024-05-09T11:26:09.192Z,2.35
2024-05-09T11:28:36.655Z,2.33
2024-05-09T11:31:08.574Z,2.33
2024-05-09T11:33:39.931Z,2.30
2024-05-09T11:36:08.176Z,2.97
2024-05-09T11:38:35.256Z,3.47
2024-05-09T11:41:03.583Z,2.72
2024-05-09T11:43:31.002Z,3.22
2024-05-09T11:45:58.665Z,1.98
2024-05-09T11:48:26.946Z,2.45
2024-05-09T11:50:55.566Z,2.58
2024-05-09T11:53:22.945Z,1.85
2024-05-09T11:55:50.238Z,2.67
2024-05-09T11:58:18.561Z,2.85
2024-05-09T12:00:47.100Z,2.63
2024-05-09T12:03:14.799Z,2.03
2024-05-09T12:05:42.414Z,2.35
2024-05-09T12:08:09.787Z,3.10
2024-05-09T12:10:37.523Z,6.45
2024-05-09T12:13:06.592Z,3.15
2024-05-09T12:15:38.385Z,2.30
2024-05-09T12:18:09.313Z,2.17
2024-05-09T12:20:39.244Z,3.20
2024-05-09T12:23:10.595Z,4.90
2024-05-09T12:25:39.510Z,2.10
2024-05-09T12:28:07.971Z,2.10
2024-05-09T12:30:39.776Z,1.98
2024-05-09T12:33:09.726Z,2.70
2024-05-09T12:35:39.157Z,3.38
2024-05-09T12:38:06.264Z,3.60
2024-05-09T12:40:37.029Z,9.07
2024-05-09T12:43:10.849Z,1.83
2024-05-09T12:45:39.306Z,2.33
2024-05-09T12:48:12.168Z,2.17
2024-05-09T12:50:41.109Z,1.60
2024-05-09T12:53:08.492Z,2.20
2024-05-09T12:55:44.161Z,1.98
2024-05-09T12:58:22.396Z,1.08
2024-05-09T13:00:51.838Z,1.67
2024-05-09T13:03:19.385Z,1.30
2024-05-09T13:05:46.999Z,1.58
2024-05-09T13:08:14.278Z,1.48
2024-05-09T13:10:41.675Z,1.13
2024-05-09T13:13:10.254Z,1.30
2024-05-09T13:15:37.726Z,0.90
2024-05-09T13:18:06.481Z,0.60
2024-05-09T13:20:35.622Z,1.58
2024-05-09T13:23:05.509Z,1.02
2024-05-09T13:25:35.036Z,0.90
2024-05-09T13:28:03.749Z,1.08
2024-05-09T13:30:39.105Z,1.50
2024-05-09T13:33:14.093Z,1.15
2024-05-09T13:35:47.044Z,0.88
2024-05-09T13:38:22.048Z,1.20
2024-05-09T13:40:50.612Z,1.70
2024-05-09T13:43:18.762Z,1.02
2024-05-09T13:45:46.634Z,1.00
2024-05-09T13:48:14.062Z,0.80
2024-05-09T13:50:41.591Z,1.52
2024-05-09T13:53:09.232Z,1.27
2024-05-09T13:55:40.197Z,1.90
2024-05-09T13:58:08.698Z,1.83
2024-05-09T14:00:45.062Z,1.70
2024-05-09T14:03:17.981Z,1.17
2024-05-09T14:05:47.174Z,1.13
2024-05-09T14:08:15.824Z,1.55
2024-05-09T14:10:47.270Z,1.95
2024-05-09T14:13:15.238Z,1.95
2024-05-09T14:15:42.526Z,1.40
2024-05-09T14:18:13.117Z,2.03
2024-05-09T14:20:41.981Z,0.80
2024-05-09T14:23:09.179Z,1.00
2024-05-09T14:25:40.379Z,0.85
2024-05-09T14:28:10.118Z,1.23
2024-05-09T14:30:38.593Z,1.48
2024-05-09T14:33:07.832Z,1.52
2024-05-09T14:35:37.923Z,1.15
2024-05-09T14:38:07.276Z,0.80
2024-05-09T14:40:41.548Z,1.00
2024-05-09T14:43:12.563Z,0.82
2024-05-09T14:45:40.368Z,0.93
2024-05-09T14:48:08.261Z,1.35
2024-05-09T14:50:38.662Z,1.50
2024-05-09T14:53:08.837Z,1.20
2024-05-09T14:55:37.841Z,1.13
2024-05-09T14:58:09.630Z,0.90
2024-05-09T15:00:41.686Z,1.38
2024-05-09T15:03:13.203Z,0.90
2024-05-09T15:05:40.762Z,0.70
2024-05-09T15:08:08.786Z,1.42
2024-05-09T15:10:37.203Z,1.10
2024-05-09T15:13:07.783Z,1.05
2024-05-09T15:15:37.055Z,0.68
2024-05-09T15:18:05.690Z,1.65
2024-05-09T15:20:36.192Z,1.75
2024-05-09T15:23:06.690Z,1.10
2024-05-09T15:25:36.246Z,1.35
2024-05-09T15:28:04.922Z,1.02
2024-05-09T15:30:33.862Z,1.00
2024-05-09T15:33:06.445Z,0.95
2024-05-09T15:35:35.930Z,1.20
2024-05-09T15:38:04.365Z,0.93
2024-05-09T15:40:38.904Z,1.00
2024-05-09T15:43:10.293Z,1.38
2024-05-09T15:45:39.291Z,1.42
2024-05-09T15:48:07.704Z,1.05
2024-05-09T15:50:39.307Z,0.70
2024-05-09T15:55:38.266Z,2.75
2024-05-09T15:58:06.435Z,1.50
2024-05-09T16:00:39.115Z,1.20
2024-05-09T16:03:10.492Z,0.60
2024-05-09T16:05:38.434Z,1.13
2024-05-09T16:08:06.813Z,1.63
2024-05-09T16:10:35.213Z,1.58
2024-05-09T16:13:03.759Z,1.55
2024-05-09T16:15:31.336Z,1.58
2024-05-09T16:17:58.818Z,2.42
2024-05-09T16:20:34.862Z,1.90
2024-05-09T16:23:07.848Z,1.25
2024-05-09T16:25:35.072Z,0.90
2024-05-09T16:28:06.260Z,1.63
2024-05-09T16:30:36.658Z,2.75
2024-05-09T16:33:05.110Z,1.98
2024-05-09T16:35:34.626Z,2.78
2024-05-09T16:38:03.163Z,9.40
2024-05-09T16:40:37.663Z,1.95
2024-05-09T16:43:11.213Z,23.40
2024-05-09T16:45:40.225Z,5.18
2024-05-09T16:48:08.451Z,2.88
2024-05-09T16:50:36.757Z,4.05
2024-05-09T16:53:06.076Z,14.55
2024-05-09T16:55:34.658Z,5.80
2024-05-09T16:58:02.753Z,11.30
2024-05-09T17:00:39.381Z,3.53
2024-05-09T17:03:12.741Z,6.70
2024-05-09T17:05:41.494Z,2.00
2024-05-09T17:08:09.023Z,2.75
2024-05-09T17:10:36.725Z,4.15
2024-05-09T17:13:05.929Z,6.70
2024-05-09T17:15:34.972Z,5.20
2024-05-09T17:18:02.806Z,5.60
2024-05-09T17:20:34.473Z,11.43
2024-05-09T17:23:05.970Z,6.03
2024-05-09T17:25:34.132Z,4.82
2024-05-09T17:28:07.656Z,5.20
2024-05-09T17:30:38.324Z,9.55
2024-05-09T17:33:08.804Z,6.85
2024-05-09T17:35:37.194Z,7.20
2024-05-09T17:38:05.953Z,7.68
2024-05-09T17:40:36.146Z,5.80
2024-05-09T17:43:07.053Z,10.32
2024-05-09T17:45:37.830Z,14.60
2024-05-09T17:48:05.931Z,8.40
2024-05-09T17:50:36.085Z,6.35
2024-05-09T17:53:06.440Z,4.32
2024-05-09T17:55:34.188Z,6.50
2024-05-09T17:58:01.825Z,5.43
2024-05-09T18:00:37.274Z,6.65
2024-05-09T18:03:08.938Z,8.38
2024-05-09T18:05:37.305Z,7.05
2024-05-09T18:08:06.611Z,8.93
2024-05-09T18:10:37.973Z,6.22
2024-05-09T18:13:08.495Z,6.68
2024-05-09T18:15:36.021Z,5.60
2024-05-09T18:18:04.019Z,7.05
2024-05-09T18:20:40.286Z,5.75
2024-05-09T18:23:11.750Z,5.97
2024-05-09T18:25:38.797Z,3.17
2024-05-09T18:28:06.963Z,5.07
2024-05-09T18:30:36.423Z,9.25
2024-05-09T18:33:06.552Z,7.50
2024-05-09T18:35:36.999Z,7.93
2024-05-09T18:38:05.609Z,8.05
2024-05-09T18:40:36.171Z,7.03
2024-05-09T18:43:08.153Z,7.22
2024-05-09T18:45:39.776Z,6.13
2024-05-09T18:48:09.100Z,8.35
2024-05-09T18:50:39.532Z,5.63
2024-05-09T18:53:11.761Z,6.80
2024-05-09T18:55:40.744Z,5.63
2024-05-09T18:58:07.933Z,7.90
2024-05-09T19:00:38.617Z,8.10
2024-05-09T19:03:11.728Z,6.18
2024-05-09T19:05:43.272Z,4.93
2024-05-09T19:08:11.557Z,6.15
2024-05-09T19:10:39.233Z,5.60
2024-05-09T19:13:11.095Z,4.55
2024-05-09T19:18:09.729Z,5.53
2024-05-09T19:20:37.668Z,3.13
2024-05-09T19:23:06.536Z,7.93
2024-05-09T19:25:34.859Z,8.18
2024-05-09T19:28:02.290Z,6.25
2024-05-09T19:30:37.774Z,6.57
2024-05-09T19:33:09.587Z,6.50
2024-05-09T19:35:37.537Z,5.18
2024-05-09T19:38:05.513Z,3.67
2024-05-09T19:40:34.254Z,2.60
2024-05-09T19:43:03.152Z,2.15
2024-05-09T19:45:32.852Z,2.80
2024-05-09T19:48:00.855Z,2.85
2024-05-09T19:50:36.907Z,3.33
2024-05-09T19:53:10.724Z,3.10
2024-05-09T19:55:38.467Z,3.20
2024-05-09T19:58:07.250Z,3.38
2024-05-09T20:00:41.684Z,2.92
2024-05-09T20:03:12.538Z,2.47
2024-05-09T20:05:40.295Z,3.00
2024-05-09T20:08:07.900Z,2.25
2024-05-09T20:10:36.365Z,3.67
2024-05-09T20:13:06.444Z,3.05
2024-05-09T20:15:36.848Z,2.70
2024-05-09T20:18:05.076Z,3.67
2024-05-09T20:20:38.885Z,3.67
2024-05-09T20:23:10.001Z,2.83
2024-05-09T20:25:37.624Z,4.05
2024-05-09T20:28:06.252Z,4.32
2024-05-09T20:30:35.030Z,5.25
2024-05-09T20:33:04.915Z,4.93
2024-05-09T20:35:33.537Z,4.03
2024-05-09T20:38:02.050Z,4.60
2024-05-09T20:40:34.413Z,3.63
2024-05-09T20:43:05.596Z,4.47
2024-05-09T20:45:33.523Z,4.10
2024-05-09T20:48:01.079Z,3.72
2024-05-09T20:50:36.654Z,3.58
2024-05-09T20:53:12.633Z,4.05
2024-05-09T20:55:40.949Z,4.47
2024-05-09T20:58:09.615Z,3.58
2024-05-09T21:00:40.838Z,5.53
2024-05-09T21:03:11.713Z,5.43
2024-05-09T21:05:40.000Z,4.80
2024-05-09T21:08:07.803Z,6.10
2024-05-09T21:10:36.715Z,4.85
2024-05-09T21:13:05.391Z,5.43
2024-05-09T21:15:33.264Z,4.97
2024-05-09T21:18:00.511Z,5.68
2024-05-09T21:20:31.524Z,6.15
2024-05-09T21:23:01.590Z,5.45
2024-05-09T21:25:29.627Z,5.72
2024-05-09T21:27:56.821Z,5.55
2024-05-09T21:30:32.636Z,6.25
2024-05-09T21:33:13.750Z,5.05
2024-05-09T21:35:43.687Z,5.75
2024-05-09T21:38:11.242Z,6.15
2024-05-09T21:40:38.888Z,5.43
2024-05-09T21:43:08.903Z,5.43
2024-05-09T21:45:37.176Z,5.32
2024-05-09T21:48:05.346Z,5.38
2024-05-09T21:50:39.586Z,5.95
2024-05-09T21:53:12.721Z,6.20
2024-05-09T21:55:40.477Z,5.05
2024-05-09T21:58:07.846Z,5.55
2024-05-09T22:00:38.252Z,6.25
2024-05-09T22:03:08.133Z,4.88
2024-05-09T22:05:36.415Z,6.50
2024-05-09T22:08:04.006Z,6.45
2024-05-09T22:10:34.826Z,6.03
2024-05-09T22:13:07.314Z,4.63
2024-05-09T22:15:36.464Z,5.68
2024-05-09T22:18:04.852Z,6.18
2024-05-09T22:20:37.262Z,5.38
2024-05-09T22:23:07.014Z,6.65
2024-05-09T22:25:34.414Z,4.78
2024-05-09T22:28:02.709Z,5.85
2024-05-09T22:30:36.212Z,7.25
2024-05-09T22:33:11.678Z,6.40
2024-05-09T22:35:40.552Z,6.45
2024-05-09T22:38:07.948Z,5.93
2024-05-09T22:40:45.578Z,6.35
2024-05-09T22:43:21.522Z,6.45
2024-05-09T22:45:51.235Z,6.20
2024-05-09T22:48:18.801Z,6.25
2024-05-09T22:50:46.120Z,7.50
2024-05-09T22:53:13.156Z,6.75
2024-05-09T22:55:40.264Z,7.78
2024-05-09T22:58:07.557Z,7.43
2024-05-09T23:00:35.170Z,6.45
2024-05-09T23:03:03.120Z,6.95
2024-05-09T23:05:31.000Z,7.05
2024-05-09T23:07:58.318Z,6.82
2024-05-09T23:10:32.238Z,6.72
2024-05-09T23:13:04.116Z,7.22
2024-05-09T23:15:31.582Z,6.35
2024-05-09T23:17:59.137Z,7.55
2024-05-09T23:20:35.922Z,7.72
2024-05-09T23:23:06.904Z,6.90
2024-05-09T23:25:34.385Z,6.90
2024-05-09T23:28:01.851Z,6.55
2024-05-09T23:30:36.958Z,7.40
2024-05-09T23:33:08.005Z,7.57
2024-05-09T23:35:35.389Z,7.82
2024-05-09T23:38:02.551Z,7.20
2024-05-09T23:40:38.177Z,6.13
2024-05-09T23:43:12.116Z,7.05
2024-05-09T23:45:40.129Z,7.40
2024-05-09T23:48:08.279Z,8.25
2024-05-09T23:50:37.994Z,7.80
2024-05-09T23:53:08.312Z,7.13
2024-05-09T23:55:36.425Z,8.05
2024-05-09T23:58:03.707Z,7.88
